sensor_id;sensor_type;location;lat;lon;timestamp;temperature;humidity
27848;DHT22;15212;48.830;8.730;2023-07-22T00:00:45;14.30;99.90
27848;DHT22;15212;48.830;8.730;2023-07-22T00:03:13;14.30;99.90
27848;DHT22;15212;48.830;8.730;2023-07-22T00:05:42;14.30;99.90
27848;DHT22;15212;48.830;8.730;2023-07-22T00:08:10;14.30;99.90
27848;DHT22;15212;48.830;8.730;2023-07-22T00:10:42;14.30;99.90
27848;DHT22;15212;48.830;8.730;2023-07-22T00:13:11;14.20;99.90
27848;DHT22;15212;48.830;8.730;2023-07-22T00:15:39;14.20;99.90
27848;DHT22;15212;48.830;8.730;2023-07-22T00:18:07;14.20;99.90
27848;DHT22;15212;48.830;8.730;2023-07-22T00:20:36;14.20;99.90
27848;DHT22;15212;48.830;8.730;2023-07-22T00:23:05;14.10;99.90
27848;DHT22;15212;48.830;8.730;2023-07-22T00:25:33;14.10;99.90
27848;DHT22;15212;48.830;8.730;2023-07-22T00:28:02;14.10;99.90
27848;DHT22;15212;48.830;8.730;2023-07-22T00:30:33;14.10;99.90
27848;DHT22;15212;48.830;8.730;2023-07-22T00:33:02;14.10;99.90
27848;DHT22;15212;48.830;8.730;2023-07-22T00:35:30;14.10;99.90
27848;DHT22;15212;48.830;8.730;2023-07-22T00:38:02;14.20;99.90
27848;DHT22;15212;48.830;8.730;2023-07-22T00:40:30;14.20;99.90
27848;DHT22;15212;48.830;8.730;2023-07-22T00:43:02;14.10;99.90
27848;DHT22;15212;48.830;8.730;2023-07-22T00:45:31;14.20;99.90
27848;DHT22;15212;48.830;8.730;2023-07-22T00:47:59;14.10;99.90
27848;DHT22;15212;48.830;8.730;2023-07-22T00:50:28;14.20;99.90
27848;DHT22;15212;48.830;8.730;2023-07-22T00:52:56;14.10;99.90
27848;DHT22;15212;48.830;8.730;2023-07-22T00:55:25;14.10;99.90
27848;DHT22;15212;48.830;8.730;2023-07-22T00:57:55;14.10;99.90
27848;DHT22;15212;48.830;8.730;2023-07-22T01:00:23;14.10;99.90
27848;DHT22;15212;48.830;8.730;2023-07-22T01:02:52;14.10;99.90
27848;DHT22;15212;48.830;8.730;2023-07-22T01:05:20;14.10;99.90
27848;DHT22;15212;48.830;8.730;2023-07-22T01:07:49;14.10;99.90
27848;DHT22;15212;48.830;8.730;2023-07-22T01:10:18;14.10;99.90
27848;DHT22;15212;48.830;8.730;2023-07-22T01:12:46;14.10;99.90
27848;DHT22;15212;48.830;8.730;2023-07-22T01:15:14;14.00;99.90
27848;DHT22;15212;48.830;8.730;2023-07-22T01:17:43;14.00;99.90
27848;DHT22;15212;48.830;8.730;2023-07-22T01:20:12;14.00;99.90
27848;DHT22;15212;48.830;8.730;2023-07-22T01:22:47;14.00;99.90
27848;DHT22;15212;48.830;8.730;2023-07-22T01:25:20;14.00;99.90
27848;DHT22;15212;48.830;8.730;2023-07-22T01:27:51;14.00;99.90
27848;DHT22;15212;48.830;8.730;2023-07-22T01:30:20;14.00;99.90
27848;DHT22;15212;48.830;8.730;2023-07-22T01:32:48;14.10;99.90
27848;DHT22;15212;48.830;8.730;2023-07-22T01:35:17;14.00;99.90
27848;DHT22;15212;48.830;8.730;2023-07-22T01:37:46;14.00;99.90
27848;DHT22;15212;48.830;8.730;2023-07-22T01:40:14;14.10;99.90
27848;DHT22;15212;48.830;8.730;2023-07-22T01:42:42;14.10;99.90
27848;DHT22;15212;48.830;8.730;2023-07-22T01:45:11;14.10;99.90
27848;DHT22;15212;48.830;8.730;2023-07-22T01:47:40;14.00;99.90
27848;DHT22;15212;48.830;8.730;2023-07-22T01:50:09;14.00;99.90
27848;DHT22;15212;48.830;8.730;2023-07-22T01:52:37;14.00;99.90
27848;DHT22;15212;48.830;8.730;2023-07-22T01:55:06;14.00;99.90
27848;DHT22;15212;48.830;8.730;2023-07-22T01:57:37;13.90;99.90
27848;DHT22;15212;48.830;8.730;2023-07-22T02:00:07;13.80;99.90
27848;DHT22;15212;48.830;8.730;2023-07-22T02:02:37;13.80;99.90
27848;DHT22;15212;48.830;8.730;2023-07-22T02:05:06;13.70;99.90
27848;DHT22;15212;48.830;8.730;2023-07-22T02:07:36;13.60;99.90
27848;DHT22;15212;48.830;8.730;2023-07-22T02:10:05;13.50;99.90
27848;DHT22;15212;48.830;8.730;2023-07-22T02:12:35;13.50;99.90
27848;DHT22;15212;48.830;8.730;2023-07-22T02:15:03;13.40;99.90
27848;DHT22;15212;48.830;8.730;2023-07-22T02:17:32;13.40;99.90
27848;DHT22;15212;48.830;8.730;2023-07-22T02:20:00;13.40;99.90
27848;DHT22;15212;48.830;8.730;2023-07-22T02:22:31;13.30;99.90
27848;DHT22;15212;48.830;8.730;2023-07-22T02:24:59;13.30;99.90
27848;DHT22;15212;48.830;8.730;2023-07-22T02:27:27;13.20;99.90
27848;DHT22;15212;48.830;8.730;2023-07-22T02:29:56;13.20;99.90
27848;DHT22;15212;48.830;8.730;2023-07-22T02:32:24;13.10;99.90
27848;DHT22;15212;48.830;8.730;2023-07-22T02:34:53;13.00;99.90
27848;DHT22;15212;48.830;8.730;2023-07-22T02:37:21;12.90;99.90
27848;DHT22;15212;48.830;8.730;2023-07-22T02:39:49;12.80;99.90
27848;DHT22;15212;48.830;8.730;2023-07-22T02:42:18;12.80;99.90
27848;DHT22;15212;48.830;8.730;2023-07-22T02:44:46;12.70;99.90
27848;DHT22;15212;48.830;8.730;2023-07-22T02:47:15;12.70;99.90
27848;DHT22;15212;48.830;8.730;2023-07-22T02:49:43;12.70;99.90
27848;DHT22;15212;48.830;8.730;2023-07-22T02:52:11;12.70;99.90
27848;DHT22;15212;48.830;8.730;2023-07-22T02:54:40;12.70;99.90
27848;DHT22;15212;48.830;8.730;2023-07-22T02:57:09;12.70;99.90
27848;DHT22;15212;48.830;8.730;2023-07-22T02:59:37;12.80;99.90
27848;DHT22;15212;48.830;8.730;2023-07-22T03:02:06;12.80;99.90
27848;DHT22;15212;48.830;8.730;2023-07-22T03:04:34;12.80;99.90
27848;DHT22;15212;48.830;8.730;2023-07-22T03:07:02;12.80;99.90
27848;DHT22;15212;48.830;8.730;2023-07-22T03:09:33;12.70;99.90
27848;DHT22;15212;48.830;8.730;2023-07-22T03:12:01;12.80;99.90
27848;DHT22;15212;48.830;8.730;2023-07-22T03:14:30;12.80;99.90
27848;DHT22;15212;48.830;8.730;2023-07-22T03:17:02;12.80;99.90
27848;DHT22;15212;48.830;8.730;2023-07-22T03:19:33;12.90;99.90
27848;DHT22;15212;48.830;8.730;2023-07-22T03:22:02;12.90;99.90
27848;DHT22;15212;48.830;8.730;2023-07-22T03:24:31;12.90;99.90
27848;DHT22;15212;48.830;8.730;2023-07-22T03:27:00;12.90;99.90
27848;DHT22;15212;48.830;8.730;2023-07-22T03:29:28;12.90;99.90
27848;DHT22;15212;48.830;8.730;2023-07-22T03:31:56;13.00;99.90
27848;DHT22;15212;48.830;8.730;2023-07-22T03:34:30;13.00;99.90
27848;DHT22;15212;48.830;8.730;2023-07-22T03:36:59;13.00;99.90
27848;DHT22;15212;48.830;8.730;2023-07-22T03:39:27;13.00;99.90
27848;DHT22;15212;48.830;8.730;2023-07-22T03:41:56;13.00;99.90
27848;DHT22;15212;48.830;8.730;2023-07-22T03:44:24;13.10;99.90
27848;DHT22;15212;48.830;8.730;2023-07-22T03:46:54;13.10;99.90
27848;DHT22;15212;48.830;8.730;2023-07-22T03:49:22;13.20;99.90
27848;DHT22;15212;48.830;8.730;2023-07-22T03:51:51;13.30;99.90
27848;DHT22;15212;48.830;8.730;2023-07-22T03:54:20;13.30;99.90
27848;DHT22;15212;48.830;8.730;2023-07-22T03:56:48;13.40;99.90
27848;DHT22;15212;48.830;8.730;2023-07-22T03:59:16;13.40;99.90
27848;DHT22;15212;48.830;8.730;2023-07-22T04:01:45;13.40;99.90
27848;DHT22;15212;48.830;8.730;2023-07-22T04:04:14;13.40;99.90
27848;DHT22;15212;48.830;8.730;2023-07-22T04:06:42;13.40;99.90
27848;DHT22;15212;48.830;8.730;2023-07-22T04:09:11;13.40;99.90
27848;DHT22;15212;48.830;8.730;2023-07-22T04:11:39;13.40;99.90
27848;DHT22;15212;48.830;8.730;2023-07-22T04:14:07;13.40;99.90
27848;DHT22;15212;48.830;8.730;2023-07-22T04:16:36;13.40;99.90
27848;DHT22;15212;48.830;8.730;2023-07-22T04:19:04;13.40;99.90
27848;DHT22;15212;48.830;8.730;2023-07-22T04:21:32;13.40;99.90
27848;DHT22;15212;48.830;8.730;2023-07-22T04:24:01;13.40;99.90
27848;DHT22;15212;48.830;8.730;2023-07-22T04:26:30;13.40;99.90
27848;DHT22;15212;48.830;8.730;2023-07-22T04:29:00;13.40;99.90
27848;DHT22;15212;48.830;8.730;2023-07-22T04:31:28;13.50;99.90
27848;DHT22;15212;48.830;8.730;2023-07-22T04:33:58;13.50;99.90
27848;DHT22;15212;48.830;8.730;2023-07-22T04:36:26;13.60;99.90
27848;DHT22;15212;48.830;8.730;2023-07-22T04:38:54;13.60;99.90
27848;DHT22;15212;48.830;8.730;2023-07-22T04:41:23;13.70;99.90
27848;DHT22;15212;48.830;8.730;2023-07-22T04:43:51;13.70;99.90
27848;DHT22;15212;48.830;8.730;2023-07-22T04:46:20;13.80;99.90
27848;DHT22;15212;48.830;8.730;2023-07-22T04:48:50;13.90;99.90
27848;DHT22;15212;48.830;8.730;2023-07-22T04:51:18;13.90;99.90
27848;DHT22;15212;48.830;8.730;2023-07-22T04:53:46;14.00;99.90
27848;DHT22;15212;48.830;8.730;2023-07-22T04:56:15;14.10;99.90
27848;DHT22;15212;48.830;8.730;2023-07-22T04:58:43;14.20;99.90
27848;DHT22;15212;48.830;8.730;2023-07-22T05:01:12;14.20;99.90
27848;DHT22;15212;48.830;8.730;2023-07-22T05:03:40;14.30;99.90
27848;DHT22;15212;48.830;8.730;2023-07-22T05:06:09;14.40;99.90
27848;DHT22;15212;48.830;8.730;2023-07-22T05:08:37;14.40;99.90
27848;DHT22;15212;48.830;8.730;2023-07-22T05:11:07;14.50;99.90
27848;DHT22;15212;48.830;8.730;2023-07-22T05:13:35;14.60;99.90
27848;DHT22;15212;48.830;8.730;2023-07-22T05:16:04;14.70;99.90
27848;DHT22;15212;48.830;8.730;2023-07-22T05:18:32;14.70;99.90
27848;DHT22;15212;48.830;8.730;2023-07-22T05:21:01;14.80;99.90
27848;DHT22;15212;48.830;8.730;2023-07-22T05:23:29;14.90;99.90
27848;DHT22;15212;48.830;8.730;2023-07-22T05:25:57;15.00;99.90
27848;DHT22;15212;48.830;8.730;2023-07-22T05:28:26;15.10;99.90
27848;DHT22;15212;48.830;8.730;2023-07-22T05:30:56;15.20;99.90
27848;DHT22;15212;48.830;8.730;2023-07-22T05:33:24;15.30;99.90
27848;DHT22;15212;48.830;8.730;2023-07-22T05:35:52;15.40;99.90
27848;DHT22;15212;48.830;8.730;2023-07-22T05:38:21;15.50;99.90
27848;DHT22;15212;48.830;8.730;2023-07-22T05:40:51;15.60;99.90
27848;DHT22;15212;48.830;8.730;2023-07-22T05:43:21;15.70;99.90
27848;DHT22;15212;48.830;8.730;2023-07-22T05:45:50;15.90;99.90
27848;DHT22;15212;48.830;8.730;2023-07-22T05:48:18;16.10;99.90
27848;DHT22;15212;48.830;8.730;2023-07-22T05:50:48;16.20;99.90
27848;DHT22;15212;48.830;8.730;2023-07-22T05:53:16;16.30;99.90
27848;DHT22;15212;48.830;8.730;2023-07-22T05:55:45;16.40;99.90
27848;DHT22;15212;48.830;8.730;2023-07-22T05:58:16;16.50;99.90
27848;DHT22;15212;48.830;8.730;2023-07-22T06:00:45;16.60;99.90
27848;DHT22;15212;48.830;8.730;2023-07-22T06:03:14;16.70;99.90
27848;DHT22;15212;48.830;8.730;2023-07-22T06:05:43;16.80;99.90
27848;DHT22;15212;48.830;8.730;2023-07-22T06:08:11;17.00;99.90
27848;DHT22;15212;48.830;8.730;2023-07-22T06:10:42;17.20;99.90
27848;DHT22;15212;48.830;8.730;2023-07-22T06:13:11;17.60;99.90
27848;DHT22;15212;48.830;8.730;2023-07-22T06:15:40;17.90;99.90
27848;DHT22;15212;48.830;8.730;2023-07-22T06:18:08;18.60;99.90
27848;DHT22;15212;48.830;8.730;2023-07-22T06:20:37;19.50;99.90
27848;DHT22;15212;48.830;8.730;2023-07-22T06:23:05;20.60;99.90
27848;DHT22;15212;48.830;8.730;2023-07-22T06:25:33;21.40;99.90
27848;DHT22;15212;48.830;8.730;2023-07-22T06:28:02;22.30;99.90
27848;DHT22;15212;48.830;8.730;2023-07-22T06:30:30;23.20;99.90
27848;DHT22;15212;48.830;8.730;2023-07-22T06:32:59;23.80;99.90
27848;DHT22;15212;48.830;8.730;2023-07-22T06:35:27;24.30;99.90
27848;DHT22;15212;48.830;8.730;2023-07-22T06:37:55;24.70;99.90
27848;DHT22;15212;48.830;8.730;2023-07-22T06:40:25;25.40;99.90
27848;DHT22;15212;48.830;8.730;2023-07-22T06:42:53;25.80;99.90
27848;DHT22;15212;48.830;8.730;2023-07-22T06:45:21;26.30;99.90
27848;DHT22;15212;48.830;8.730;2023-07-22T06:47:50;26.60;99.90
27848;DHT22;15212;48.830;8.730;2023-07-22T06:50:18;26.90;98.00
27848;DHT22;15212;48.830;8.730;2023-07-22T06:52:47;26.80;98.90
27848;DHT22;15212;48.830;8.730;2023-07-22T06:55:16;27.10;97.30
27848;DHT22;15212;48.830;8.730;2023-07-22T06:57:44;27.20;96.30
27848;DHT22;15212;48.830;8.730;2023-07-22T07:00:13;27.40;95.80
27848;DHT22;15212;48.830;8.730;2023-07-22T07:02:41;27.50;95.50
27848;DHT22;15212;48.830;8.730;2023-07-22T07:05:10;27.60;94.80
27848;DHT22;15212;48.830;8.730;2023-07-22T07:07:39;27.70;93.50
27848;DHT22;15212;48.830;8.730;2023-07-22T07:10:08;27.20;93.70
27848;DHT22;15212;48.830;8.730;2023-07-22T07:12:36;26.80;93.60
27848;DHT22;15212;48.830;8.730;2023-07-22T07:15:06;27.00;93.50
27848;DHT22;15212;48.830;8.730;2023-07-22T07:17:35;27.10;93.30
27848;DHT22;15212;48.830;8.730;2023-07-22T07:20:04;26.90;93.40
27848;DHT22;15212;48.830;8.730;2023-07-22T07:22:33;26.40;93.70
27848;DHT22;15212;48.830;8.730;2023-07-22T07:25:01;26.00;94.30
27848;DHT22;15212;48.830;8.730;2023-07-22T07:27:30;25.40;94.40
27848;DHT22;15212;48.830;8.730;2023-07-22T07:29:58;25.00;95.40
27848;DHT22;15212;48.830;8.730;2023-07-22T07:32:26;24.10;95.80
27848;DHT22;15212;48.830;8.730;2023-07-22T07:34:55;23.50;96.50
27848;DHT22;15212;48.830;8.730;2023-07-22T07:37:23;23.30;96.90
27848;DHT22;15212;48.830;8.730;2023-07-22T07:39:52;23.20;97.10
27848;DHT22;15212;48.830;8.730;2023-07-22T07:42:22;23.40;96.90
27848;DHT22;15212;48.830;8.730;2023-07-22T07:44:50;23.50;96.40
27848;DHT22;15212;48.830;8.730;2023-07-22T07:47:19;23.30;97.50
27848;DHT22;15212;48.830;8.730;2023-07-22T07:49:47;23.10;97.60
27848;DHT22;15212;48.830;8.730;2023-07-22T07:52:15;23.20;98.10
27848;DHT22;15212;48.830;8.730;2023-07-22T07:54:44;23.00;97.90
27848;DHT22;15212;48.830;8.730;2023-07-22T07:57:12;22.90;98.20
27848;DHT22;15212;48.830;8.730;2023-07-22T07:59:41;23.00;97.70
27848;DHT22;15212;48.830;8.730;2023-07-22T08:02:09;22.70;99.30
27848;DHT22;15212;48.830;8.730;2023-07-22T08:04:37;22.70;99.40
27848;DHT22;15212;48.830;8.730;2023-07-22T08:07:06;22.50;98.90
27848;DHT22;15212;48.830;8.730;2023-07-22T08:09:35;22.60;98.70
27848;DHT22;15212;48.830;8.730;2023-07-22T08:12:04;22.60;98.50
27848;DHT22;15212;48.830;8.730;2023-07-22T08:14:32;22.50;97.60
27848;DHT22;15212;48.830;8.730;2023-07-22T08:17:01;22.20;97.60
27848;DHT22;15212;48.830;8.730;2023-07-22T08:19:30;21.90;98.00
27848;DHT22;15212;48.830;8.730;2023-07-22T08:21:58;22.00;98.60
27848;DHT22;15212;48.830;8.730;2023-07-22T08:24:27;22.10;99.10
27848;DHT22;15212;48.830;8.730;2023-07-22T08:26:55;22.20;99.40
27848;DHT22;15212;48.830;8.730;2023-07-22T08:29:24;22.20;98.80
27848;DHT22;15212;48.830;8.730;2023-07-22T08:31:52;22.00;97.60
27848;DHT22;15212;48.830;8.730;2023-07-22T08:34:21;21.90;98.60
27848;DHT22;15212;48.830;8.730;2023-07-22T08:36:49;21.80;98.50
27848;DHT22;15212;48.830;8.730;2023-07-22T08:39:17;21.40;97.50
27848;DHT22;15212;48.830;8.730;2023-07-22T08:41:48;21.20;97.70
27848;DHT22;15212;48.830;8.730;2023-07-22T08:44:20;21.00;98.50
27848;DHT22;15212;48.830;8.730;2023-07-22T08:46:50;20.80;99.20
27848;DHT22;15212;48.830;8.730;2023-07-22T08:49:21;20.70;99.40
27848;DHT22;15212;48.830;8.730;2023-07-22T08:51:50;20.60;99.90
27848;DHT22;15212;48.830;8.730;2023-07-22T08:54:19;20.60;99.90
27848;DHT22;15212;48.830;8.730;2023-07-22T08:56:49;20.60;99.90
27848;DHT22;15212;48.830;8.730;2023-07-22T08:59:18;20.70;99.90
27848;DHT22;15212;48.830;8.730;2023-07-22T09:01:48;20.70;99.90
27848;DHT22;15212;48.830;8.730;2023-07-22T09:04:18;20.80;99.90
27848;DHT22;15212;48.830;8.730;2023-07-22T09:06:47;20.80;99.90
27848;DHT22;15212;48.830;8.730;2023-07-22T09:09:16;20.80;99.90
27848;DHT22;15212;48.830;8.730;2023-07-22T09:11:46;20.90;99.90
27848;DHT22;15212;48.830;8.730;2023-07-22T09:14:16;21.20;99.90
27848;DHT22;15212;48.830;8.730;2023-07-22T09:16:46;21.50;99.90
27848;DHT22;15212;48.830;8.730;2023-07-22T09:19:14;21.60;99.90
27848;DHT22;15212;48.830;8.730;2023-07-22T09:21:44;21.70;99.90
27848;DHT22;15212;48.830;8.730;2023-07-22T09:24:26;21.70;99.90
27848;DHT22;15212;48.830;8.730;2023-07-22T09:26:58;21.60;99.90
27848;DHT22;15212;48.830;8.730;2023-07-22T09:29:35;21.50;99.90
27848;DHT22;15212;48.830;8.730;2023-07-22T09:32:06;21.40;99.90
27848;DHT22;15212;48.830;8.730;2023-07-22T09:34:35;21.30;99.90
27848;DHT22;15212;48.830;8.730;2023-07-22T09:37:03;21.10;99.90
27848;DHT22;15212;48.830;8.730;2023-07-22T09:39:32;21.00;99.90
27848;DHT22;15212;48.830;8.730;2023-07-22T09:42:00;21.00;99.90
27848;DHT22;15212;48.830;8.730;2023-07-22T09:44:31;21.10;99.90
27848;DHT22;15212;48.830;8.730;2023-07-22T09:47:07;21.40;99.90
27848;DHT22;15212;48.830;8.730;2023-07-22T09:49:39;21.90;99.90
27848;DHT22;15212;48.830;8.730;2023-07-22T09:52:10;22.10;99.90
27848;DHT22;15212;48.830;8.730;2023-07-22T09:54:48;22.40;99.90
27848;DHT22;15212;48.830;8.730;2023-07-22T09:57:17;22.60;99.90
27848;DHT22;15212;48.830;8.730;2023-07-22T09:59:48;22.60;99.90
27848;DHT22;15212;48.830;8.730;2023-07-22T10:02:19;22.50;99.90
27848;DHT22;15212;48.830;8.730;2023-07-22T10:04:49;22.30;99.90
27848;DHT22;15212;48.830;8.730;2023-07-22T10:07:20;22.10;99.90
27848;DHT22;15212;48.830;8.730;2023-07-22T10:09:50;21.90;99.90
27848;DHT22;15212;48.830;8.730;2023-07-22T10:12:20;21.70;99.90
27848;DHT22;15212;48.830;8.730;2023-07-22T10:14:49;21.50;99.90
27848;DHT22;15212;48.830;8.730;2023-07-22T10:17:19;21.30;99.90
27848;DHT22;15212;48.830;8.730;2023-07-22T10:19:48;21.00;99.90
27848;DHT22;15212;48.830;8.730;2023-07-22T10:22:18;21.00;99.90
27848;DHT22;15212;48.830;8.730;2023-07-22T10:24:47;21.30;99.90
27848;DHT22;15212;48.830;8.730;2023-07-22T10:27:17;21.60;99.90
27848;DHT22;15212;48.830;8.730;2023-07-22T10:29:46;21.80;99.90
27848;DHT22;15212;48.830;8.730;2023-07-22T10:32:14;22.00;99.90
27848;DHT22;15212;48.830;8.730;2023-07-22T10:34:43;22.30;99.90
27848;DHT22;15212;48.830;8.730;2023-07-22T10:37:12;22.50;99.00
27848;DHT22;15212;48.830;8.730;2023-07-22T10:39:40;22.50;99.60
27848;DHT22;15212;48.830;8.730;2023-07-22T10:42:08;22.60;99.60
27848;DHT22;15212;48.830;8.730;2023-07-22T10:44:38;22.60;99.90
27848;DHT22;15212;48.830;8.730;2023-07-22T10:47:07;22.90;99.90
27848;DHT22;15212;48.830;8.730;2023-07-22T10:49:45;22.90;98.60
27848;DHT22;15212;48.830;8.730;2023-07-22T10:52:37;22.90;99.30
27848;DHT22;15212;48.830;8.730;2023-07-22T10:55:19;23.00;97.90
27848;DHT22;15212;48.830;8.730;2023-07-22T10:57:50;23.20;99.10
27848;DHT22;15212;48.830;8.730;2023-07-22T11:00:20;23.30;98.50
27848;DHT22;15212;48.830;8.730;2023-07-22T11:03:15;23.50;97.60
27848;DHT22;15212;48.830;8.730;2023-07-22T11:05:52;23.50;98.90
27848;DHT22;15212;48.830;8.730;2023-07-22T11:08:39;23.60;97.50
27848;DHT22;15212;48.830;8.730;2023-07-22T11:11:08;23.50;97.60
27848;DHT22;15212;48.830;8.730;2023-07-22T11:13:40;23.40;96.10
27848;DHT22;15212;48.830;8.730;2023-07-22T11:16:12;23.50;98.40
27848;DHT22;15212;48.830;8.730;2023-07-22T11:18:41;23.50;97.50
27848;DHT22;15212;48.830;8.730;2023-07-22T11:21:10;23.40;98.20
27848;DHT22;15212;48.830;8.730;2023-07-22T11:23:39;23.40;97.90
27848;DHT22;15212;48.830;8.730;2023-07-22T11:26:08;23.50;97.00
27848;DHT22;15212;48.830;8.730;2023-07-22T11:28:37;23.60;96.90
27848;DHT22;15212;48.830;8.730;2023-07-22T11:31:05;23.40;97.80
27848;DHT22;15212;48.830;8.730;2023-07-22T11:33:40;23.20;97.90
27848;DHT22;15212;48.830;8.730;2023-07-22T11:36:11;23.30;98.50
27848;DHT22;15212;48.830;8.730;2023-07-22T11:38:39;23.40;98.30
27848;DHT22;15212;48.830;8.730;2023-07-22T11:41:08;23.50;97.40
27848;DHT22;15212;48.830;8.730;2023-07-22T11:43:37;23.60;98.10
27848;DHT22;15212;48.830;8.730;2023-07-22T11:46:06;23.70;98.20
27848;DHT22;15212;48.830;8.730;2023-07-22T11:48:35;23.70;95.30
27848;DHT22;15212;48.830;8.730;2023-07-22T11:51:03;23.70;95.60
27848;DHT22;15212;48.830;8.730;2023-07-22T11:53:32;23.60;95.80
27848;DHT22;15212;48.830;8.730;2023-07-22T11:56:02;23.60;96.20
27848;DHT22;15212;48.830;8.730;2023-07-22T11:58:31;23.70;95.70
27848;DHT22;15212;48.830;8.730;2023-07-22T12:01:06;23.70;96.50
27848;DHT22;15212;48.830;8.730;2023-07-22T12:03:36;23.80;96.60
27848;DHT22;15212;48.830;8.730;2023-07-22T12:06:06;23.90;96.40
27848;DHT22;15212;48.830;8.730;2023-07-22T12:08:36;23.80;96.20
27848;DHT22;15212;48.830;8.730;2023-07-22T12:11:06;23.70;95.50
27848;DHT22;15212;48.830;8.730;2023-07-22T12:13:38;23.60;96.60
27848;DHT22;15212;48.830;8.730;2023-07-22T12:16:06;23.40;96.00
27848;DHT22;15212;48.830;8.730;2023-07-22T12:18:45;23.30;96.40
27848;DHT22;15212;48.830;8.730;2023-07-22T12:21:15;23.40;96.80
27848;DHT22;15212;48.830;8.730;2023-07-22T12:23:45;23.60;97.40
27848;DHT22;15212;48.830;8.730;2023-07-22T12:26:14;23.70;97.20
27848;DHT22;15212;48.830;8.730;2023-07-22T12:28:42;23.80;97.20
27848;DHT22;15212;48.830;8.730;2023-07-22T12:31:10;23.90;96.60
27848;DHT22;15212;48.830;8.730;2023-07-22T12:33:39;24.00;96.80
27848;DHT22;15212;48.830;8.730;2023-07-22T12:36:07;23.80;96.30
27848;DHT22;15212;48.830;8.730;2023-07-22T12:38:35;23.60;95.10
27848;DHT22;15212;48.830;8.730;2023-07-22T12:41:04;23.70;96.90
27848;DHT22;15212;48.830;8.730;2023-07-22T12:43:32;23.80;95.90
27848;DHT22;15212;48.830;8.730;2023-07-22T12:46:01;24.00;95.80
27848;DHT22;15212;48.830;8.730;2023-07-22T12:48:29;24.10;96.50
27848;DHT22;15212;48.830;8.730;2023-07-22T12:50:57;24.00;96.50
27848;DHT22;15212;48.830;8.730;2023-07-22T12:53:27;24.10;97.20
27848;DHT22;15212;48.830;8.730;2023-07-22T12:55:56;24.00;97.50
27848;DHT22;15212;48.830;8.730;2023-07-22T12:58:24;24.10;97.50
27848;DHT22;15212;48.830;8.730;2023-07-22T13:00:52;24.10;97.00
27848;DHT22;15212;48.830;8.730;2023-07-22T13:03:21;24.10;96.30
27848;DHT22;15212;48.830;8.730;2023-07-22T13:05:49;24.10;96.30
27848;DHT22;15212;48.830;8.730;2023-07-22T13:08:18;24.10;96.70
27848;DHT22;15212;48.830;8.730;2023-07-22T13:10:46;24.00;96.50
27848;DHT22;15212;48.830;8.730;2023-07-22T13:13:14;24.00;96.40
27848;DHT22;15212;48.830;8.730;2023-07-22T13:15:43;24.10;97.20
27848;DHT22;15212;48.830;8.730;2023-07-22T13:18:11;24.40;97.30
27848;DHT22;15212;48.830;8.730;2023-07-22T13:20:40;24.50;95.80
27848;DHT22;15212;48.830;8.730;2023-07-22T13:23:08;24.50;96.10
27848;DHT22;15212;48.830;8.730;2023-07-22T13:25:36;24.60;94.00
27848;DHT22;15212;48.830;8.730;2023-07-22T13:28:05;24.50;94.10
27848;DHT22;15212;48.830;8.730;2023-07-22T13:30:34;24.60;95.50
27848;DHT22;15212;48.830;8.730;2023-07-22T13:33:02;24.50;94.40
27848;DHT22;15212;48.830;8.730;2023-07-22T13:35:31;24.60;95.10
27848;DHT22;15212;48.830;8.730;2023-07-22T13:37:59;24.70;95.60
27848;DHT22;15212;48.830;8.730;2023-07-22T13:40:27;24.80;95.30
27848;DHT22;15212;48.830;8.730;2023-07-22T13:42:57;25.00;95.40
27848;DHT22;15212;48.830;8.730;2023-07-22T13:45:26;25.10;93.50
27848;DHT22;15212;48.830;8.730;2023-07-22T13:47:54;25.10;94.20
27848;DHT22;15212;48.830;8.730;2023-07-22T13:50:23;25.00;93.40
27848;DHT22;15212;48.830;8.730;2023-07-22T13:52:51;24.80;93.50
27848;DHT22;15212;48.830;8.730;2023-07-22T13:55:20;24.80;93.90
27848;DHT22;15212;48.830;8.730;2023-07-22T13:57:48;24.80;94.10
27848;DHT22;15212;48.830;8.730;2023-07-22T14:00:16;24.70;94.00
27848;DHT22;15212;48.830;8.730;2023-07-22T14:02:45;24.70;92.90
27848;DHT22;15212;48.830;8.730;2023-07-22T14:05:13;24.70;93.20
27848;DHT22;15212;48.830;8.730;2023-07-22T14:07:41;24.60;93.50
27848;DHT22;15212;48.830;8.730;2023-07-22T14:10:10;24.60;94.20
27848;DHT22;15212;48.830;8.730;2023-07-22T14:12:38;24.50;93.50
27848;DHT22;15212;48.830;8.730;2023-07-22T14:15:07;24.60;93.60
27848;DHT22;15212;48.830;8.730;2023-07-22T14:17:36;24.50;93.70
27848;DHT22;15212;48.830;8.730;2023-07-22T14:20:05;24.40;93.50
27848;DHT22;15212;48.830;8.730;2023-07-22T14:22:34;24.40;94.00
27848;DHT22;15212;48.830;8.730;2023-07-22T14:25:03;24.40;93.60
27848;DHT22;15212;48.830;8.730;2023-07-22T14:27:31;24.40;93.80
27848;DHT22;15212;48.830;8.730;2023-07-22T14:30:02;24.30;93.10
27848;DHT22;15212;48.830;8.730;2023-07-22T14:32:32;24.10;92.90
27848;DHT22;15212;48.830;8.730;2023-07-22T14:35:00;23.80;93.30
27848;DHT22;15212;48.830;8.730;2023-07-22T14:37:30;23.70;93.50
27848;DHT22;15212;48.830;8.730;2023-07-22T14:39:59;23.60;94.10
27848;DHT22;15212;48.830;8.730;2023-07-22T14:42:27;23.60;94.00
27848;DHT22;15212;48.830;8.730;2023-07-22T14:44:56;23.70;94.50
27848;DHT22;15212;48.830;8.730;2023-07-22T14:47:24;23.90;94.70
27848;DHT22;15212;48.830;8.730;2023-07-22T14:49:53;23.80;93.90
27848;DHT22;15212;48.830;8.730;2023-07-22T14:52:22;23.80;93.90
27848;DHT22;15212;48.830;8.730;2023-07-22T14:54:50;23.70;94.20
27848;DHT22;15212;48.830;8.730;2023-07-22T14:57:18;23.70;94.30
27848;DHT22;15212;48.830;8.730;2023-07-22T14:59:47;23.60;94.30
27848;DHT22;15212;48.830;8.730;2023-07-22T15:02:15;23.60;94.40
27848;DHT22;15212;48.830;8.730;2023-07-22T15:04:43;23.60;95.00
27848;DHT22;15212;48.830;8.730;2023-07-22T15:07:12;23.60;95.00
27848;DHT22;15212;48.830;8.730;2023-07-22T15:09:40;23.50;94.70
27848;DHT22;15212;48.830;8.730;2023-07-22T15:12:09;23.40;95.00
27848;DHT22;15212;48.830;8.730;2023-07-22T15:14:37;23.40;94.70
27848;DHT22;15212;48.830;8.730;2023-07-22T15:17:06;23.30;95.00
27848;DHT22;15212;48.830;8.730;2023-07-22T15:19:34;23.30;94.60
27848;DHT22;15212;48.830;8.730;2023-07-22T15:22:03;23.40;94.90
27848;DHT22;15212;48.830;8.730;2023-07-22T15:24:31;23.40;94.50
27848;DHT22;15212;48.830;8.730;2023-07-22T15:27:00;23.40;95.20
27848;DHT22;15212;48.830;8.730;2023-07-22T15:29:28;23.50;95.40
27848;DHT22;15212;48.830;8.730;2023-07-22T15:31:57;23.50;94.90
27848;DHT22;15212;48.830;8.730;2023-07-22T15:34:27;23.60;95.70
27848;DHT22;15212;48.830;8.730;2023-07-22T15:36:55;23.50;95.50
27848;DHT22;15212;48.830;8.730;2023-07-22T15:39:23;23.60;95.70
27848;DHT22;15212;48.830;8.730;2023-07-22T15:41:52;23.50;95.30